createdAt,value
2023-05-10T00:03:43.279Z,94.00
2023-05-10T00:08:46.669Z,94.40
2023-05-10T00:13:49.106Z,94.70
2023-05-10T00:18:51.718Z,94.40
2023-05-10T00:23:54.339Z,95.00
2023-05-10T00:28:57.818Z,95.20
2023-05-10T00:34:00.336Z,95.50
2023-05-10T00:39:04.514Z,95.10
2023-05-10T00:44:07.037Z,95.80
2023-05-10T00:54:14.974Z,94.80
2023-05-10T00:59:18.872Z,94.30
2023-05-10T01:04:26.682Z,94.70
2023-05-10T01:09:29.427Z,94.40
2023-05-10T01:19:38.636Z,94.50
2023-05-10T01:24:53.260Z,94.80
2023-05-10T01:30:23.928Z,95.10
2023-05-10T01:35:27.040Z,94.50
2023-05-10T01:40:55.573Z,95.40
2023-05-10T01:46:12.850Z,96.00
2023-05-10T01:51:24.029Z,96.10
2023-05-10T01:56:29.148Z,96.00
2023-05-10T02:01:32.949Z,95.70
2023-05-10T02:06:36.596Z,96.80
2023-05-10T02:11:40.390Z,96.80
2023-05-10T02:16:44.322Z,96.60
2023-05-10T02:21:47.573Z,96.20
2023-05-10T02:26:52.349Z,96.40
2023-05-10T02:31:56.356Z,96.10
2023-05-10T02:37:03.183Z,95.70
2023-05-10T02:42:06.724Z,95.60
2023-05-10T02:47:09.343Z,96.30
2023-05-10T02:52:20.374Z,95.60
2023-05-10T02:57:33.542Z,95.90
2023-05-10T03:02:37.367Z,96.10
2023-05-10T03:07:39.926Z,95.50
2023-05-10T03:12:58.587Z,96.00
2023-05-10T03:18:21.437Z,95.20
2023-05-10T03:23:51.410Z,95.00
2023-05-10T03:28:55.476Z,92.00
2023-05-10T03:33:58.394Z,90.60
2023-05-10T03:39:03.479Z,85.10
2023-05-10T03:44:07.053Z,81.60
2023-05-10T03:49:09.516Z,78.20
2023-05-10T03:54:12.877Z,74.10
2023-05-10T03:59:15.641Z,73.20
2023-05-10T04:04:19.843Z,70.50
2023-05-10T04:09:24.972Z,67.30
2023-05-10T04:14:27.869Z,65.50
2023-05-10T04:19:34.266Z,63.50
2023-05-10T04:24:37.153Z,62.40
2023-05-10T04:29:39.770Z,60.50
2023-05-10T04:34:42.379Z,59.50
2023-05-10T04:39:45.198Z,58.00
2023-05-10T04:44:47.836Z,57.50
2023-05-10T04:49:50.334Z,58.40
2023-05-10T04:54:52.915Z,56.40
2023-05-10T04:59:55.789Z,56.00
2023-05-10T05:04:59.778Z,54.20
2023-05-10T05:10:02.422Z,55.60
2023-05-10T05:15:07.243Z,52.50
2023-05-10T05:20:11.848Z,53.50
2023-05-10T05:25:14.904Z,52.80
2023-05-10T05:30:17.603Z,52.80
2023-05-10T05:35:20.636Z,50.60
2023-05-10T05:40:23.555Z,52.30
2023-05-10T05:45:26.040Z,51.70
2023-05-10T05:50:28.745Z,53.10
2023-05-10T05:55:32.546Z,53.30
2023-05-10T06:00:35.395Z,59.60
2023-05-10T06:05:38.129Z,65.30
2023-05-10T06:10:40.936Z,68.30
2023-05-10T06:15:43.549Z,69.60
2023-05-10T06:20:50.577Z,70.50
2023-05-10T06:25:53.492Z,74.00
2023-05-10T06:30:56.668Z,73.50
2023-05-10T06:35:59.282Z,73.20
2023-05-10T06:41:02.158Z,75.00
2023-05-10T06:46:04.756Z,73.70
2023-05-10T06:51:07.300Z,74.40
2023-05-10T06:56:09.738Z,73.80
2023-05-10T07:01:12.968Z,75.50
2023-05-10T07:06:29.314Z,74.80
2023-05-10T07:11:36.445Z,75.20
2023-05-10T07:16:39.057Z,75.70
2023-05-10T07:21:43.632Z,74.20
2023-05-10T07:26:46.271Z,76.10
2023-05-10T07:31:48.906Z,75.80
2023-05-10T07:36:51.530Z,74.60
2023-05-10T07:41:54.434Z,75.60
2023-05-10T07:46:57.296Z,76.20
2023-05-10T07:52:00.192Z,72.10
2023-05-10T07:57:02.789Z,75.10
2023-05-10T08:02:05.399Z,75.60
2023-05-10T08:07:08.341Z,73.40
2023-05-10T08:12:10.815Z,73.30
2023-05-10T08:17:13.477Z,72.90
2023-05-10T08:22:16.596Z,76.00
2023-05-10T08:27:19.071Z,72.00
2023-05-10T08:32:22.379Z,71.90
2023-05-10T08:37:25.335Z,72.50
2023-05-10T08:42:31.288Z,71.60
2023-05-10T08:47:34.092Z,69.60
2023-05-10T08:52:41.423Z,67.10
2023-05-10T08:57:43.900Z,66.90
2023-05-10T09:02:49.425Z,68.90
2023-05-10T09:07:52.466Z,68.90
2023-05-10T09:12:59.645Z,66.70
2023-05-10T09:18:03.923Z,64.20
2023-05-10T09:23:06.914Z,66.60
2023-05-10T09:28:10.695Z,66.30
2023-05-10T09:33:15.667Z,65.90
2023-05-10T09:38:18.320Z,66.10
2023-05-10T09:43:21.487Z,68.20
2023-05-10T09:48:25.927Z,67.20
2023-05-10T09:53:28.564Z,66.90
2023-05-10T09:58:31.743Z,63.80
2023-05-10T10:03:34.192Z,66.20
2023-05-10T10:08:37.295Z,63.50
2023-05-10T10:13:40.415Z,67.40
2023-05-10T10:18:43.682Z,66.00
2023-05-10T10:23:47.449Z,61.30
2023-05-10T10:28:58.381Z,64.60
2023-05-10T10:34:07.803Z,63.00
2023-05-10T10:39:12.114Z,63.80
2023-05-10T10:44:27.440Z,64.80
2023-05-10T10:49:34.108Z,63.70
2023-05-10T10:54:37.465Z,61.70
2023-05-10T10:59:47.432Z,62.80
2023-05-10T11:04:50.188Z,61.60
2023-05-10T11:09:53.423Z,65.20
2023-05-10T11:14:58.751Z,64.40
2023-05-10T11:20:11.918Z,61.80
2023-05-10T11:25:14.508Z,65.10
2023-05-10T11:30:17.669Z,66.80
2023-05-10T11:35:20.616Z,60.30
2023-05-10T11:40:25.604Z,60.40
2023-05-10T11:45:29.971Z,60.60
2023-05-10T11:50:33.763Z,61.80
2023-05-10T11:55:36.374Z,64.10
2023-05-10T12:00:39.706Z,60.20
2023-05-10T12:05:43.193Z,59.50
2023-05-10T12:10:46.034Z,63.20
2023-05-10T12:15:48.585Z,63.20
2023-05-10T12:20:57.262Z,60.60
2023-05-10T12:26:07.983Z,68.10
2023-05-10T12:31:11.350Z,62.10
2023-05-10T12:36:16.170Z,61.30
2023-05-10T12:41:20.007Z,61.90
2023-05-10T12:46:22.638Z,59.40
2023-05-10T12:51:25.642Z,63.90
2023-05-10T12:56:28.226Z,62.60
2023-05-10T13:01:31.061Z,62.50
2023-05-10T13:06:33.492Z,60.80
2023-05-10T13:11:37.517Z,58.90
2023-05-10T13:16:41.085Z,61.10
2023-05-10T13:21:45.954Z,60.50
2023-05-10T13:26:48.518Z,58.60
2023-05-10T13:31:51.807Z,60.30
2023-05-10T13:36:55.432Z,59.10
2023-05-10T13:42:00.016Z,59.90
2023-05-10T13:47:03.997Z,59.50
2023-05-10T13:52:09.148Z,60.30
2023-05-10T13:57:14.995Z,59.00
2023-05-10T14:02:18.277Z,61.20
2023-05-10T14:07:21.229Z,59.30
2023-05-10T14:12:24.159Z,60.40
2023-05-10T14:17:27.298Z,59.40
2023-05-10T14:22:33.604Z,59.40
2023-05-10T14:27:36.849Z,58.40
2023-05-10T14:32:43.105Z,60.40
2023-05-10T14:37:46.126Z,62.90
2023-05-10T14:42:51.210Z,61.30
2023-05-10T14:47:54.979Z,63.40
2023-05-10T14:52:57.880Z,60.40
2023-05-10T14:58:02.234Z,59.50
2023-05-10T15:03:05.387Z,59.00
2023-05-10T15:08:08.533Z,58.00
2023-05-10T15:13:11.426Z,59.30
2023-05-10T15:18:15.550Z,58.90
2023-05-10T15:23:20.976Z,60.40
2023-05-10T15:28:24.247Z,59.40
2023-05-10T15:33:28.616Z,61.20
2023-05-10T15:38:31.248Z,60.70
2023-05-10T15:43:34.019Z,61.20
2023-05-10T15:48:37.887Z,60.30
2023-05-10T15:53:49.430Z,58.70
2023-05-10T15:58:59.738Z,58.40
2023-05-10T16:04:03.040Z,60.40
2023-05-10T16:09:06.034Z,59.90
2023-05-10T16:14:08.805Z,58.20
2023-05-10T16:19:12.135Z,61.90
2023-05-10T16:24:16.573Z,60.90
2023-05-10T16:29:22.383Z,58.70
2023-05-10T16:34:25.480Z,58.40
2023-05-10T16:39:28.212Z,61.00
2023-05-10T16:44:30.900Z,60.90
2023-05-10T16:49:34.516Z,62.40
2023-05-10T16:54:37.571Z,60.50
2023-05-10T16:59:44.066Z,57.80
2023-05-10T17:04:46.938Z,58.20
2023-05-10T17:09:51.049Z,57.60
2023-05-10T17:14:54.012Z,57.80
2023-05-10T17:19:57.040Z,56.60
2023-05-10T17:24:59.801Z,56.50
2023-05-10T17:30:05.675Z,57.80
2023-05-10T17:35:10.348Z,59.60
2023-05-10T17:40:13.495Z,58.60
2023-05-10T17:45:18.089Z,58.30
2023-05-10T17:50:21.188Z,61.40
2023-05-10T17:55:27.374Z,60.80
2023-05-10T18:00:36.403Z,60.20
2023-05-10T18:05:39.504Z,60.80
2023-05-10T18:10:42.167Z,63.80
2023-05-10T18:15:45.225Z,65.40
2023-05-10T18:20:51.336Z,65.50
2023-05-10T18:25:54.139Z,66.00
2023-05-10T18:36:01.332Z,64.40
2023-05-10T18:41:04.315Z,67.20
2023-05-10T18:46:07.869Z,66.50
2023-05-10T18:51:12.711Z,65.70
2023-05-10T18:56:19.246Z,66.20
2023-05-10T19:01:22.138Z,67.80
2023-05-10T19:06:25.327Z,68.30
2023-05-10T19:11:30.584Z,68.90
2023-05-10T19:16:35.047Z,69.30
2023-05-10T19:21:39.229Z,70.30
2023-05-10T19:26:42.396Z,69.70
2023-05-10T19:31:47.364Z,69.20
2023-05-10T19:36:50.860Z,69.80
2023-05-10T19:41:55.799Z,70.10
2023-05-10T19:47:04.048Z,70.80
2023-05-10T19:52:12.353Z,71.80
2023-05-10T19:57:15.310Z,72.60
2023-05-10T20:02:18.274Z,72.70
2023-05-10T20:07:21.080Z,73.30
2023-05-10T20:12:25.087Z,73.90
2023-05-10T20:17:29.132Z,74.10
2023-05-10T20:22:33.258Z,74.90
2023-05-10T20:27:37.694Z,75.60
2023-05-10T20:32:41.985Z,76.40
2023-05-10T20:37:48.644Z,78.00
2023-05-10T20:42:54.449Z,78.70
2023-05-10T20:47:59.625Z,79.90
2023-05-10T20:53:03.117Z,80.90
2023-05-10T20:58:06.215Z,81.10
2023-05-10T21:08:14.119Z,81.60
2023-05-10T21:13:17.820Z,83.00
2023-05-10T21:18:20.896Z,84.00
2023-05-10T21:23:36.180Z,84.30
2023-05-10T21:28:42.114Z,84.90
2023-05-10T21:33:46.032Z,85.40
2023-05-10T21:38:51.298Z,87.10
2023-05-10T21:43:56.872Z,87.00
2023-05-10T21:48:59.488Z,87.30
2023-05-10T21:54:09.056Z,87.90
2023-05-10T21:59:11.608Z,88.50
2023-05-10T22:04:18.074Z,89.20
2023-05-10T22:09:20.894Z,89.60
2023-05-10T22:14:23.580Z,90.30
2023-05-10T22:19:26.139Z,90.00
2023-05-10T22:29:31.671Z,88.20
2023-05-10T22:34:38.578Z,87.80
2023-05-10T22:39:41.929Z,88.10
2023-05-10T22:44:47.282Z,88.60
2023-05-10T22:49:50.202Z,87.60
2023-05-10T22:54:53.051Z,89.10
2023-05-10T22:59:55.934Z,90.20
2023-05-10T23:04:58.738Z,90.20
2023-05-10T23:10:02.925Z,90.80
2023-05-10T23:15:06.325Z,90.50
2023-05-10T23:20:10.057Z,90.80
2023-05-10T23:25:12.598Z,91.10
2023-05-10T23:30:17.940Z,91.70
2023-05-10T23:35:23.694Z,91.80
2023-05-10T23:40:26.796Z,91.40
2023-05-10T23:45:31.004Z,91.70
2023-05-10T23:50:34.971Z,91.70
2023-05-10T23:55:37.770Z,91.10
